createdAt,value
2018-09-22T00:01:42.396Z,2.50
2018-09-22T00:04:11.581Z,3.63
2018-09-22T00:06:40.787Z,1.70
2018-09-22T00:09:11.184Z,2.20
2018-09-22T00:11:40.784Z,2.93
2018-09-22T00:14:10.275Z,2.23
2018-09-22T00:16:39.519Z,2.03
2018-09-22T00:19:09.076Z,2.17
2018-09-22T00:21:38.267Z,1.40
2018-09-22T00:24:07.469Z,3.00
2018-09-22T00:26:36.716Z,3.20
2018-09-22T00:29:05.887Z,3.37
2018-09-22T00:31:35.065Z,3.00
2018-09-22T00:34:04.272Z,3.50
2018-09-22T00:36:33.534Z,2.93
2018-09-22T00:39:02.860Z,2.13
2018-09-22T00:41:32.083Z,1.77
2018-09-22T00:44:01.260Z,2.57
2018-09-22T00:46:30.588Z,2.20
2018-09-22T00:48:59.756Z,2.63
2018-09-22T00:51:28.977Z,4.10
2018-09-22T00:53:58.156Z,3.40
2018-09-22T00:56:27.404Z,2.53
2018-09-22T00:58:56.569Z,3.93
2018-09-22T01:01:25.772Z,2.57
2018-09-22T01:03:54.944Z,3.43
2018-09-22T01:06:24.200Z,3.23
2018-09-22T01:08:53.367Z,2.43
2018-09-22T01:11:22.541Z,4.17
2018-09-22T01:13:51.897Z,3.40
2018-09-22T01:16:21.090Z,3.20
2018-09-22T01:18:50.287Z,3.10
2018-09-22T01:21:19.481Z,3.47
2018-09-22T01:23:48.671Z,1.80
2018-09-22T01:26:17.883Z,3.77
2018-09-22T01:28:47.055Z,1.97
2018-09-22T01:31:16.212Z,2.83
2018-09-22T01:33:45.409Z,2.97
2018-09-22T01:36:14.675Z,3.23
2018-09-22T01:38:43.841Z,3.37
2018-09-22T01:41:13.018Z,2.77
2018-09-22T01:43:42.236Z,4.43
2018-09-22T01:46:11.569Z,3.10
2018-09-22T01:48:40.764Z,3.53
2018-09-22T01:51:09.979Z,2.40
2018-09-22T01:53:39.161Z,1.90
2018-09-22T01:56:08.442Z,3.50
2018-09-22T01:58:37.657Z,1.93
2018-09-22T02:01:06.841Z,2.10
2018-09-22T02:03:36.028Z,3.07
2018-09-22T02:06:05.256Z,3.37
2018-09-22T02:08:34.522Z,1.60
2018-09-22T02:11:03.703Z,5.87
2018-09-22T02:13:32.881Z,2.40
2018-09-22T02:16:02.151Z,3.00
2018-09-22T02:18:31.399Z,3.50
2018-09-22T02:21:00.594Z,2.63
2018-09-22T02:23:29.793Z,3.53
2018-09-22T02:25:58.964Z,1.70
2018-09-22T02:28:28.155Z,2.33
2018-09-22T02:30:57.357Z,6.37
2018-09-22T02:33:26.536Z,2.30
2018-09-22T02:35:55.716Z,5.27
2018-09-22T02:38:24.876Z,3.30
2018-09-22T02:40:54.084Z,4.37
2018-09-22T02:43:23.276Z,3.50
2018-09-22T02:45:52.471Z,2.57
2018-09-22T02:48:21.725Z,2.57
2018-09-22T02:50:50.968Z,3.23
2018-09-22T02:53:20.139Z,4.70
2018-09-22T02:55:49.364Z,4.20
2018-09-22T02:58:18.624Z,4.23
2018-09-22T03:00:47.813Z,5.10
2018-09-22T03:03:16.995Z,3.37
2018-09-22T03:05:46.182Z,5.23
2018-09-22T03:08:15.416Z,2.70
2018-09-22T03:10:44.656Z,2.57
2018-09-22T03:13:13.812Z,3.60
2018-09-22T03:15:42.999Z,3.53
2018-09-22T03:18:12.248Z,3.73
2018-09-22T03:20:41.408Z,8.03
2018-09-22T03:23:10.849Z,6.63
2018-09-22T03:25:40.165Z,4.63
2018-09-22T03:28:09.559Z,3.73
2018-09-22T03:30:39.134Z,4.37
2018-09-22T03:33:08.907Z,4.07
2018-09-22T03:35:38.172Z,5.77
2018-09-22T03:38:07.555Z,3.50
2018-09-22T03:40:36.913Z,6.43
2018-09-22T03:43:06.219Z,5.77
2018-09-22T03:45:35.487Z,4.37
2018-09-22T03:48:04.716Z,4.33
2018-09-22T03:50:33.995Z,3.07
2018-09-22T03:53:03.224Z,7.80
2018-09-22T03:55:32.521Z,6.60
2018-09-22T03:58:01.795Z,3.63
2018-09-22T04:00:31.094Z,3.87
2018-09-22T04:03:00.300Z,3.87
2018-09-22T04:05:29.875Z,4.93
2018-09-22T04:07:59.219Z,3.43
2018-09-22T04:10:28.507Z,5.00
2018-09-22T04:12:57.785Z,4.20
2018-09-22T04:15:27.134Z,3.40
2018-09-22T04:17:56.493Z,5.53
2018-09-22T04:20:25.744Z,2.97
2018-09-22T04:22:55.013Z,4.90
2018-09-22T04:25:24.280Z,3.90
2018-09-22T04:27:53.684Z,3.03
2018-09-22T04:30:22.909Z,3.83
2018-09-22T04:32:52.150Z,3.20
2018-09-22T04:35:21.443Z,3.53
2018-09-22T04:37:50.808Z,2.67
2018-09-22T04:40:20.139Z,5.10
2018-09-22T04:42:49.421Z,3.23
2018-09-22T04:45:18.645Z,3.30
2018-09-22T04:47:48.156Z,4.40
2018-09-22T04:50:17.389Z,4.43
2018-09-22T04:52:46.589Z,3.67
2018-09-22T04:55:15.831Z,4.03
2018-09-22T04:57:45.156Z,3.97
2018-09-22T05:00:14.451Z,3.03
2018-09-22T05:02:43.693Z,4.20
2018-09-22T05:05:13.003Z,4.23
2018-09-22T05:07:42.316Z,3.63
2018-09-22T05:10:11.637Z,4.00
2018-09-22T05:12:40.887Z,5.10
2018-09-22T05:15:10.189Z,4.13
2018-09-22T05:17:39.453Z,4.10
2018-09-22T05:20:08.716Z,3.90
2018-09-22T05:22:37.993Z,6.20
2018-09-22T05:25:07.219Z,9.33
2018-09-22T05:27:36.547Z,4.70
2018-09-22T05:30:05.839Z,6.30
2018-09-22T05:32:35.138Z,3.83
2018-09-22T05:35:04.369Z,4.63
2018-09-22T05:37:33.720Z,9.17
2018-09-22T05:40:02.954Z,23.00
2018-09-22T05:42:32.324Z,15.07
2018-09-22T05:45:01.614Z,16.67
2018-09-22T05:47:30.913Z,16.30
2018-09-22T05:50:00.287Z,12.50
2018-09-22T05:52:29.564Z,16.83
2018-09-22T05:54:58.891Z,61.50
2018-09-22T05:57:28.244Z,64.80
2018-09-22T05:59:57.519Z,63.50
2018-09-22T06:02:26.865Z,64.00
2018-09-22T06:04:56.195Z,56.00
2018-09-22T06:07:25.543Z,60.77
2018-09-22T06:09:54.786Z,65.33
2018-09-22T06:12:24.008Z,58.20
2018-09-22T06:14:53.235Z,54.80
2018-09-22T06:17:22.636Z,48.63
2018-09-22T06:19:52.132Z,49.93
2018-09-22T06:22:21.431Z,51.67
2018-09-22T06:24:50.642Z,39.93
2018-09-22T06:27:19.952Z,43.80
2018-09-22T06:29:49.201Z,41.87
2018-09-22T06:32:18.457Z,44.03
2018-09-22T06:34:47.826Z,40.23
2018-09-22T06:37:17.159Z,37.93
2018-09-22T06:39:46.401Z,36.77
2018-09-22T06:42:15.760Z,36.07
2018-09-22T06:44:45.310Z,35.73
2018-09-22T06:47:14.733Z,36.17
2018-09-22T06:49:44.018Z,30.33
2018-09-22T06:52:13.247Z,30.53
2018-09-22T06:54:42.515Z,31.73
2018-09-22T06:57:11.840Z,30.97
2018-09-22T06:59:41.167Z,27.40
2018-09-22T07:02:10.469Z,24.70
2018-09-22T07:04:40.068Z,27.53
2018-09-22T07:07:09.589Z,23.73
2018-09-22T07:09:39.110Z,23.27
2018-09-22T07:12:08.363Z,22.40
2018-09-22T07:14:37.698Z,22.63
2018-09-22T07:17:07.037Z,23.57
2018-09-22T07:19:36.378Z,23.60
2018-09-22T07:22:10.588Z,23.80
2018-09-22T07:24:39.869Z,20.10
2018-09-22T07:27:09.322Z,19.60
2018-09-22T07:29:38.609Z,22.63
2018-09-22T07:32:07.968Z,21.13
2018-09-22T07:34:37.206Z,17.63
2018-09-22T07:37:06.722Z,17.30
2018-09-22T07:39:35.991Z,17.83
2018-09-22T07:42:05.227Z,20.13
2018-09-22T07:44:34.514Z,15.80
2018-09-22T07:47:03.808Z,17.50
2018-09-22T07:49:33.116Z,15.87
2018-09-22T07:52:02.769Z,13.20
2018-09-22T07:54:32.009Z,17.83
2018-09-22T07:57:01.457Z,15.47
2018-09-22T07:59:30.808Z,11.83
2018-09-22T08:02:00.265Z,14.77
2018-09-22T08:04:29.517Z,14.47
2018-09-22T08:06:58.796Z,15.27
2018-09-22T08:09:28.057Z,14.20
2018-09-22T08:11:57.308Z,13.53
2018-09-22T08:14:26.574Z,11.63
2018-09-22T08:16:55.905Z,13.47
2018-09-22T08:19:25.282Z,11.40
2018-09-22T08:21:54.534Z,14.60
2018-09-22T08:24:23.785Z,13.70
2018-09-22T08:26:53.205Z,10.73
2018-09-22T08:29:22.429Z,14.93
2018-09-22T08:31:51.785Z,14.00
2018-09-22T08:34:21.040Z,9.53
2018-09-22T08:36:50.445Z,13.97
2018-09-22T08:39:19.644Z,13.53
2018-09-22T08:41:48.899Z,10.63
2018-09-22T08:44:18.111Z,14.87
2018-09-22T08:46:47.339Z,10.30
2018-09-22T08:49:16.705Z,11.57
2018-09-22T08:51:45.976Z,11.57
2018-09-22T08:54:15.238Z,9.93
2018-09-22T08:56:44.548Z,9.17
2018-09-22T08:59:13.832Z,8.77
2018-09-22T09:01:43.100Z,7.97
2018-09-22T09:04:12.404Z,9.20
2018-09-22T09:06:41.697Z,9.93
2018-09-22T09:09:11.414Z,7.23
2018-09-22T09:11:40.749Z,11.03
2018-09-22T09:14:10.032Z,13.10
2018-09-22T09:16:39.315Z,10.80
2018-09-22T09:19:08.517Z,12.90
2018-09-22T09:21:37.739Z,7.03
2018-09-22T09:24:06.643Z,8.07
2018-09-22T09:26:35.977Z,8.13
2018-09-22T09:29:05.280Z,10.30
2018-09-22T09:31:34.561Z,6.73
2018-09-22T09:34:03.840Z,9.83
2018-09-22T09:36:33.128Z,5.97
2018-09-22T09:39:02.849Z,15.30
2018-09-22T09:41:32.048Z,12.27
2018-09-22T09:44:01.323Z,12.23
2018-09-22T09:46:30.559Z,8.43
2018-09-22T09:48:59.855Z,14.10
2018-09-22T09:51:29.088Z,11.17
2018-09-22T09:53:58.417Z,11.83
2018-09-22T09:56:27.766Z,25.07
2018-09-22T09:58:57.005Z,14.93
2018-09-22T10:01:26.240Z,7.87
2018-09-22T10:03:55.454Z,12.53
2018-09-22T10:06:24.894Z,6.10
2018-09-22T10:08:54.148Z,11.63
2018-09-22T10:11:23.365Z,8.50
2018-09-22T10:13:52.589Z,12.73
2018-09-22T10:16:22.086Z,8.33
2018-09-22T10:18:51.344Z,11.57
2018-09-22T10:21:20.656Z,47.80
2018-09-22T10:23:50.022Z,141.87
2018-09-22T10:26:19.877Z,208.27
2018-09-22T10:28:49.400Z,272.57
2018-09-22T10:31:18.784Z,218.33
2018-09-22T10:33:48.177Z,195.23
2018-09-22T10:36:17.712Z,161.90
2018-09-22T10:38:47.302Z,136.20
2018-09-22T10:41:16.726Z,106.03
2018-09-22T10:43:46.096Z,103.63
2018-09-22T10:46:15.573Z,87.43
2018-09-22T10:48:45.018Z,95.20
2018-09-22T10:51:14.412Z,86.30
2018-09-22T10:53:43.782Z,90.37
2018-09-22T10:56:13.204Z,86.03
2018-09-22T10:58:42.527Z,76.13
2018-09-22T11:01:11.887Z,82.33
2018-09-22T11:03:41.237Z,68.83
2018-09-22T11:06:10.847Z,67.93
2018-09-22T11:08:40.240Z,70.70
2018-09-22T11:11:09.561Z,70.73
2018-09-22T11:13:38.925Z,67.43
2018-09-22T11:16:08.571Z,66.50
2018-09-22T11:18:37.877Z,60.67
2018-09-22T11:21:07.352Z,68.40
2018-09-22T11:23:36.858Z,62.93
2018-09-22T11:26:06.195Z,54.93
2018-09-22T11:28:35.572Z,58.30
2018-09-22T11:31:05.029Z,57.27
2018-09-22T11:33:34.413Z,56.87
2018-09-22T11:36:03.785Z,62.53
2018-09-22T11:38:33.167Z,49.03
2018-09-22T11:41:03.836Z,53.40
2018-09-22T11:43:33.285Z,45.73
2018-09-22T11:46:02.717Z,49.03
2018-09-22T11:48:32.044Z,47.30
2018-09-22T11:51:01.526Z,46.60
2018-09-22T11:53:31.499Z,40.43
2018-09-22T11:56:00.989Z,43.20
2018-09-22T11:58:30.351Z,39.63
2018-09-22T12:00:59.711Z,41.30
2018-09-22T12:03:29.002Z,34.53
2018-09-22T12:05:58.434Z,36.63
2018-09-22T12:08:27.799Z,31.97
2018-09-22T12:10:57.222Z,33.03
2018-09-22T12:13:26.643Z,30.80
2018-09-22T12:15:56.050Z,30.83
2018-09-22T12:18:25.332Z,34.33
2018-09-22T12:20:54.730Z,27.47
2018-09-22T12:23:24.052Z,29.23
2018-09-22T12:25:53.467Z,31.00
2018-09-22T12:28:22.932Z,30.83
2018-09-22T12:30:52.450Z,28.13
2018-09-22T12:33:21.825Z,25.03
2018-09-22T12:35:51.226Z,23.77
2018-09-22T12:38:20.660Z,23.10
2018-09-22T12:40:50.015Z,23.87
2018-09-22T12:43:19.376Z,23.13
2018-09-22T12:45:48.720Z,22.03
2018-09-22T12:48:18.096Z,18.87
2018-09-22T12:50:47.445Z,20.10
2018-09-22T12:53:17.731Z,19.60
2018-09-22T12:55:47.244Z,20.70
2018-09-22T12:58:16.870Z,17.13
2018-09-22T13:00:47.281Z,18.53
2018-09-22T13:03:16.579Z,18.27
2018-09-22T13:05:45.920Z,17.90
2018-09-22T13:08:15.308Z,18.37
2018-09-22T13:10:44.762Z,14.63
2018-09-22T13:13:14.135Z,16.10
2018-09-22T13:15:43.572Z,14.97
2018-09-22T13:18:13.008Z,14.97
2018-09-22T13:20:43.657Z,13.40
2018-09-22T13:23:14.220Z,13.93
2018-09-22T13:25:43.544Z,17.53
2018-09-22T13:28:13.075Z,15.97
2018-09-22T13:30:42.468Z,11.80
2018-09-22T13:33:12.344Z,15.03
2018-09-22T13:35:41.625Z,16.10
2018-09-22T13:38:11.027Z,12.07
2018-09-22T13:40:40.408Z,10.93
2018-09-22T13:43:09.971Z,15.13
2018-09-22T13:45:39.411Z,9.70
2018-09-22T13:48:08.889Z,11.83
2018-09-22T13:50:38.133Z,14.33
2018-09-22T13:53:07.601Z,17.10
2018-09-22T13:55:37.050Z,12.27
2018-09-22T13:58:06.409Z,14.43
2018-09-22T14:00:35.767Z,11.97
2018-09-22T14:03:05.175Z,10.90
2018-09-22T14:05:34.488Z,10.63
2018-09-22T14:08:03.894Z,9.30
2018-09-22T14:10:33.362Z,10.57
2018-09-22T14:13:02.640Z,8.77
2018-09-22T14:15:32.020Z,9.80
2018-09-22T14:18:01.450Z,9.33
2018-09-22T14:20:31.280Z,10.23
2018-09-22T14:23:00.630Z,9.93
2018-09-22T14:25:29.949Z,8.77
2018-09-22T14:27:59.336Z,12.37
2018-09-22T14:30:28.615Z,10.23
2018-09-22T14:32:58.041Z,9.17
2018-09-22T14:35:28.683Z,10.23
2018-09-22T14:37:58.156Z,9.40
2018-09-22T14:40:29.916Z,12.23
2018-09-22T14:42:59.306Z,8.03
2018-09-22T14:45:28.724Z,7.53
2018-09-22T14:47:58.157Z,8.00
2018-09-22T14:50:27.456Z,7.33
2018-09-22T14:52:59.950Z,6.90
2018-09-22T14:55:29.257Z,10.30
2018-09-22T14:57:59.063Z,7.60
2018-09-22T15:00:28.388Z,6.40
2018-09-22T15:02:57.681Z,7.40
2018-09-22T15:05:27.150Z,6.83
2018-09-22T15:07:56.516Z,7.37
2018-09-22T15:10:25.900Z,9.17
2018-09-22T15:12:55.196Z,8.40
2018-09-22T15:15:24.547Z,8.33
2018-09-22T15:17:53.918Z,7.07
2018-09-22T15:20:23.265Z,5.97
2018-09-22T15:22:52.616Z,6.43
2018-09-22T15:25:22.367Z,6.07
2018-09-22T15:27:51.838Z,9.77
2018-09-22T15:30:21.230Z,8.90
2018-09-22T15:32:50.583Z,5.80
2018-09-22T15:35:19.865Z,6.33
2018-09-22T15:37:49.405Z,3.97
2018-09-22T15:40:18.678Z,10.77
2018-09-22T15:42:48.039Z,5.33
2018-09-22T15:45:17.381Z,7.73
2018-09-22T15:47:46.647Z,8.17
2018-09-22T15:50:15.938Z,5.30
2018-09-22T15:52:45.316Z,5.23
2018-09-22T15:55:14.624Z,5.83
2018-09-22T15:57:44.091Z,8.37
2018-09-22T16:00:13.370Z,8.93
2018-09-22T16:02:42.692Z,5.33
2018-09-22T16:05:11.925Z,6.20
2018-09-22T16:07:41.331Z,7.50
2018-09-22T16:10:10.497Z,13.30
2018-09-22T16:12:39.843Z,9.03
2018-09-22T16:15:09.157Z,20.40
2018-09-22T16:17:38.573Z,8.97
2018-09-22T16:20:07.851Z,13.67
2018-09-22T16:22:37.254Z,6.90
2018-09-22T16:25:07.077Z,10.90
2018-09-22T16:27:37.123Z,12.93
2018-09-22T16:30:06.907Z,10.13
2018-09-22T16:32:36.369Z,13.00
2018-09-22T16:35:05.794Z,16.30
2018-09-22T16:37:35.478Z,15.93
2018-09-22T16:40:04.883Z,15.40
2018-09-22T16:42:34.221Z,12.20
2018-09-22T16:45:03.609Z,11.03
2018-09-22T16:47:33.237Z,18.00
2018-09-22T16:50:02.908Z,16.80
2018-09-22T16:52:32.269Z,13.13
2018-09-22T16:55:01.857Z,10.07
2018-09-22T16:57:31.215Z,10.87
2018-09-22T17:00:00.521Z,13.73
2018-09-22T17:02:29.805Z,12.47
2018-09-22T17:04:59.184Z,5.80
2018-09-22T17:07:28.655Z,10.77
2018-09-22T17:09:58.041Z,12.07
2018-09-22T17:12:27.348Z,6.23
2018-09-22T17:14:56.937Z,8.67
2018-09-22T17:17:26.291Z,10.83
2018-09-22T17:19:55.663Z,7.00
2018-09-22T17:22:25.034Z,7.40
2018-09-22T17:24:54.448Z,7.87
2018-09-22T17:27:23.907Z,6.03
2018-09-22T17:29:53.252Z,7.33
2018-09-22T17:32:22.568Z,15.07
2018-09-22T17:34:52.088Z,8.60
2018-09-22T17:37:21.927Z,7.87
2018-09-22T17:39:51.308Z,6.97
2018-09-22T17:42:21.613Z,6.90
2018-09-22T17:44:50.952Z,9.40
2018-09-22T17:47:20.438Z,10.80
2018-09-22T17:49:49.832Z,8.03
2018-09-22T17:52:19.145Z,12.87
2018-09-22T17:54:48.600Z,20.77
2018-09-22T17:57:17.904Z,13.10
2018-09-22T17:59:47.196Z,11.40
2018-09-22T18:02:16.466Z,8.83
2018-09-22T18:04:45.868Z,9.13
2018-09-22T18:07:15.370Z,8.07
2018-09-22T18:09:44.727Z,8.13
2018-09-22T18:12:13.985Z,10.67
2018-09-22T18:14:43.317Z,7.40
2018-09-22T18:17:12.752Z,7.23
2018-09-22T18:19:42.181Z,5.60
2018-09-22T18:22:11.660Z,6.23
2018-09-22T18:24:40.910Z,3.93
2018-09-22T18:27:10.258Z,6.10
2018-09-22T18:29:39.548Z,8.03
2018-09-22T18:32:09.256Z,5.93
2018-09-22T18:34:38.613Z,7.53
2018-09-22T18:37:08.100Z,3.47
2018-09-22T18:39:37.585Z,4.87
2018-09-22T18:42:06.996Z,3.40
2018-09-22T18:44:36.368Z,3.77
2018-09-22T18:47:05.687Z,5.43
2018-09-22T18:49:35.049Z,5.93
2018-09-22T18:52:04.494Z,8.07
2018-09-22T18:54:33.833Z,5.97
2018-09-22T18:57:03.188Z,2.77
2018-09-22T18:59:32.493Z,4.73
2018-09-22T19:02:01.770Z,2.50
2018-09-22T19:04:31.069Z,5.83
2018-09-22T19:07:00.411Z,3.63
2018-09-22T19:09:29.714Z,4.23
2018-09-22T19:11:59.352Z,3.40
2018-09-22T19:14:33.076Z,1.80
2018-09-22T19:17:12.432Z,3.53
2018-09-22T19:19:46.474Z,4.37
2018-09-22T19:22:23.394Z,3.50
2018-09-22T19:24:56.419Z,4.97
2018-09-22T19:27:35.568Z,4.90
2018-09-22T19:30:10.017Z,2.80
2018-09-22T19:32:47.856Z,3.10
2018-09-22T19:35:25.936Z,2.37
2018-09-22T19:37:59.277Z,5.13
2018-09-22T19:40:36.022Z,4.13
2018-09-22T19:43:11.273Z,4.73
2018-09-22T19:45:45.229Z,8.70
2018-09-22T19:48:24.340Z,7.33
2018-09-22T19:50:57.117Z,7.40
2018-09-22T19:53:26.782Z,7.43
2018-09-22T19:55:56.034Z,5.87
2018-09-22T19:58:25.408Z,7.80
2018-09-22T20:00:54.847Z,3.40
2018-09-22T20:03:24.623Z,3.97
2018-09-22T20:05:54.090Z,7.40
2018-09-22T20:08:23.491Z,4.60
2018-09-22T20:10:52.755Z,6.70
2018-09-22T20:13:23.352Z,3.40
2018-09-22T20:15:52.584Z,3.23
2018-09-22T20:18:21.872Z,5.50
2018-09-22T20:20:51.142Z,1.67
2018-09-22T20:23:20.335Z,2.97
2018-09-22T20:25:49.531Z,3.30
2018-09-22T20:28:18.763Z,2.57
2018-09-22T20:30:47.943Z,4.87
2018-09-22T20:33:17.143Z,7.07
2018-09-22T20:35:46.354Z,4.43
2018-09-22T20:38:15.660Z,4.97
2018-09-22T20:40:50.071Z,3.37
2018-09-22T20:43:19.231Z,1.73
2018-09-22T20:45:48.415Z,3.17
2018-09-22T20:48:17.698Z,3.47
2018-09-22T20:50:46.948Z,2.53
2018-09-22T20:53:16.113Z,2.73
2018-09-22T20:55:45.364Z,4.70
2018-09-22T20:58:14.612Z,3.57
2018-09-22T21:00:43.760Z,2.60
2018-09-22T21:03:12.992Z,3.43
2018-09-22T21:05:42.183Z,3.27
2018-09-22T21:08:11.459Z,2.30
2018-09-22T21:10:40.641Z,3.17
2018-09-22T21:13:09.802Z,4.47
2018-09-22T21:15:39.103Z,3.07
2018-09-22T21:18:08.351Z,4.37
2018-09-22T21:20:37.529Z,2.73
2018-09-22T21:23:06.735Z,3.50
2018-09-22T21:25:35.892Z,1.80
2018-09-22T21:28:05.245Z,2.00
2018-09-22T21:30:34.524Z,1.57
2018-09-22T21:33:03.713Z,3.53
2018-09-22T21:35:32.914Z,1.30
2018-09-22T21:38:02.211Z,1.80
2018-09-22T21:40:31.420Z,2.13
2018-09-22T21:43:00.612Z,2.00
2018-09-22T21:45:29.786Z,4.87
2018-09-22T21:47:59.048Z,1.30
2018-09-22T21:50:28.236Z,2.97
2018-09-22T21:52:57.428Z,3.17
2018-09-22T21:55:26.601Z,2.90
2018-09-22T21:57:55.833Z,1.80
2018-09-22T22:00:25.260Z,2.17
2018-09-22T22:02:54.428Z,1.53
2018-09-22T22:05:23.595Z,2.10
2018-09-22T22:07:52.872Z,2.17
2018-09-22T22:10:22.093Z,1.40
2018-09-22T22:12:51.269Z,2.17
2018-09-22T22:15:20.466Z,1.17
2018-09-22T22:17:49.724Z,2.83
2018-09-22T22:20:19.237Z,2.93
2018-09-22T22:22:48.423Z,2.70
2018-09-22T22:25:17.617Z,1.83
2018-09-22T22:27:46.825Z,1.20
2018-09-22T22:30:16.025Z,2.60
2018-09-22T22:32:45.215Z,2.43
2018-09-22T22:35:14.400Z,2.80
2018-09-22T22:37:43.610Z,2.20
2018-09-22T22:40:12.804Z,1.77
2018-09-22T22:42:42.052Z,1.43
2018-09-22T22:45:11.251Z,1.60
2018-09-22T22:47:40.505Z,1.43
2018-09-22T22:50:09.708Z,1.23
2018-09-22T22:52:38.912Z,1.37
2018-09-22T22:55:08.102Z,1.57
2018-09-22T23:04:25.857Z,1.90
2018-09-22T23:06:55.076Z,2.40
2018-09-22T23:09:24.243Z,1.57
2018-09-22T23:11:53.419Z,1.80
2018-09-22T23:14:22.615Z,1.23
2018-09-22T23:16:51.861Z,2.00
2018-09-22T23:19:21.034Z,2.47
2018-09-22T23:21:50.215Z,1.87
2018-09-22T23:24:19.508Z,1.73
2018-09-22T23:26:48.760Z,2.30
2018-09-22T23:29:17.941Z,1.53
2018-09-22T23:31:47.123Z,1.93
2018-09-22T23:34:16.364Z,1.17
2018-09-22T23:36:45.655Z,1.53
2018-09-22T23:39:14.827Z,1.20
2018-09-22T23:41:43.994Z,2.00
2018-09-22T23:44:13.203Z,2.03
2018-09-22T23:46:42.506Z,1.40
2018-09-22T23:49:11.692Z,2.50
2018-09-22T23:51:40.879Z,1.93
2018-09-22T23:54:10.051Z,1.20
2018-09-22T23:56:39.692Z,1.07
2018-09-22T23:59:08.864Z,0.93
